Time;durP1;ratioP1;P1;durP2;ratioP2;P2;SDS_P1;SDS_P2;PMS_P1;PMS_P2;Temp;Humidity;BMP_temperature;BMP_pressure;BME280_temperature;BME280_humidity;BME280_pressure;Samples;Min_cycle;Max_cycle;Signal;HPM_P1;HPM_P2
2024/03/06 00:00:53;;;;;;;14.55;6.60;;;3.30;99.90;;;2.46;100.00;101551.63;4130892;28;20482;-68
2024/03/06 00:02:55;;;;;;;11.27;6.45;;;3.30;99.90;;;2.42;100.00;101548.34;4136724;28;20038;-68
2024/03/06 00:04:55;;;;;;;8.55;4.93;;;3.20;99.90;;;2.43;100.00;101559.59;4135453;28;20045;-68
2024/03/06 00:06:57;;;;;;;14.80;5.32;;;3.20;99.90;;;2.40;100.00;101557.16;4136620;28;20072;-68
2024/03/06 00:08:58;;;;;;;15.10;8.38;;;3.20;99.90;;;2.35;100.00;101557.44;4136662;28;20049;-68
2024/03/06 00:10:59;;;;;;;13.90;7.07;;;3.20;99.90;;;2.36;100.00;101559.09;4132204;28;20557;-68
2024/03/06 00:13:00;;;;;;;12.88;7.18;;;3.20;99.90;;;2.32;100.00;101556.75;4136438;28;20030;-68
2024/03/06 00:15:02;;;;;;;13.88;6.78;;;3.10;99.90;;;2.30;100.00;101554.22;4136218;28;20034;-68
2024/03/06 00:17:04;;;;;;;14.82;6.72;;;3.10;99.90;;;2.24;100.00;101557.16;4136601;28;20451;-68
2024/03/06 00:19:05;;;;;;;13.95;6.22;;;3.10;99.90;;;2.18;100.00;101554.91;4136511;28;20019;-68
2024/03/06 00:21:06;;;;;;;12.55;5.85;;;3.00;99.90;;;2.11;100.00;101559.59;4135197;28;20026;-68
2024/03/06 00:23:07;;;;;;;11.23;5.53;;;3.00;99.90;;;2.08;100.00;101562.38;4135254;28;20026;-68
2024/03/06 00:25:08;;;;;;;9.82;5.47;;;2.90;99.90;;;2.05;100.00;101559.91;4136464;28;20045;-68
2024/03/06 00:27:10;;;;;;;12.27;5.90;;;2.90;99.90;;;2.04;100.00;101566.03;4136583;28;20130;-68
2024/03/06 00:29:11;;;;;;;10.65;6.13;;;2.90;99.90;;;1.98;100.00;101558.56;4135029;28;20561;-68
2024/03/06 00:31:12;;;;;;;12.68;5.57;;;2.80;99.90;;;1.92;100.00;101558.88;4134759;28;20522;-68
2024/03/06 00:33:14;;;;;;;11.48;5.90;;;2.80;99.90;;;1.92;100.00;101561.47;4136467;28;20084;-68
2024/03/06 00:35:15;;;;;;;11.30;6.55;;;2.80;99.90;;;1.86;100.00;101556.59;4136293;28;20389;-68
2024/03/06 00:37:15;;;;;;;12.65;5.78;;;2.70;99.90;;;1.85;100.00;101556.69;4135005;28;20026;-68
2024/03/06 00:39:16;;;;;;;15.70;5.97;;;2.70;99.90;;;1.83;100.00;101564.56;4135513;28;20030;-68
2024/03/06 00:41:17;;;;;;;14.20;6.75;;;2.70;99.90;;;1.82;100.00;101569.88;4126537;28;20030;-68
2024/03/06 00:43:18;;;;;;;14.25;8.15;;;2.70;99.90;;;1.80;100.00;101564.72;4134926;28;20053;-68
2024/03/06 00:45:19;;;;;;;16.30;8.85;;;2.60;99.90;;;1.80;100.00;101571.69;4135987;28;20030;-68
2024/03/06 00:47:21;;;;;;;16.55;8.18;;;2.60;99.90;;;1.78;100.00;101571.78;4136051;28;20026;-68
2024/03/06 00:49:22;;;;;;;17.98;10.48;;;2.60;99.90;;;1.79;100.00;101576.06;4135147;28;20030;-68
2024/03/06 00:51:23;;;;;;;20.70;11.73;;;2.60;99.90;;;1.80;100.00;101569.94;4128755;28;20485;-68
2024/03/06 00:53:24;;;;;;;20.80;11.93;;;2.60;99.90;;;1.81;100.00;101570.78;4136122;28;20086;-68
2024/03/06 00:55:25;;;;;;;18.35;9.85;;;2.60;99.90;;;1.80;100.00;101567.31;4134842;28;20022;-68
2024/03/06 00:57:25;;;;;;;13.95;8.68;;;2.60;99.90;;;1.82;100.00;101578.50;4136189;28;20049;-68
2024/03/06 00:59:26;;;;;;;14.43;8.70;;;2.60;99.90;;;1.75;100.00;101571.94;4134796;28;20049;-68
2024/03/06 01:01:27;;;;;;;13.23;7.90;;;2.60;99.90;;;1.69;100.00;101569.66;4130755;28;20026;-68
2024/03/06 01:03:28;;;;;;;13.70;7.10;;;2.60;99.90;;;1.63;100.00;101568.22;4134936;28;20037;-68
2024/03/06 01:05:29;;;;;;;20.63;7.88;;;2.50;99.90;;;1.62;100.00;101573.47;4131433;28;20018;-68
2024/03/06 01:07:30;;;;;;;17.00;7.03;;;2.50;99.90;;;1.60;100.00;101564.94;4136203;28;20038;-68
2024/03/06 01:09:31;;;;;;;10.88;5.60;;;2.40;99.90;;;1.59;100.00;101563.22;4136134;28;20051;-68
2024/03/06 01:11:32;;;;;;;11.90;6.57;;;2.50;99.90;;;1.50;100.00;101555.91;4132656;28;20033;-68
2024/03/06 01:13:51;;;;;;;13.25;7.10;;;2.40;99.90;;;1.47;100.00;101561.25;4135687;28;20580;-68
2024/03/06 01:15:52;;;;;;;12.73;6.85;;;2.40;99.90;;;1.38;100.00;101561.72;4136057;28;20029;-68
2024/03/06 01:17:53;;;;;;;20.27;11.90;;;2.30;99.90;;;1.37;100.00;101560.91;4135970;28;20026;-68
2024/03/06 01:19:54;;;;;;;23.63;12.00;;;2.30;99.90;;;1.35;100.00;101560.13;4134525;28;20118;-68
2024/03/06 01:21:54;;;;;;;17.92;9.70;;;2.20;99.90;;;1.36;100.00;101560.97;4135141;28;20038;-68
2024/03/06 01:23:55;;;;;;;13.50;8.60;;;2.20;99.90;;;1.35;100.00;101561.88;4139366;28;20033;-68
2024/03/06 01:25:56;;;;;;;20.05;9.23;;;2.20;99.90;;;1.31;100.00;101561.22;4139420;28;20026;-68
2024/03/06 01:27:57;;;;;;;17.13;8.45;;;2.20;99.90;;;1.32;100.00;101560.28;4137681;28;20036;-68
2024/03/06 01:29:58;;;;;;;19.83;9.90;;;2.20;99.90;;;1.36;100.00;101564.41;4139001;28;20078;-68
2024/03/06 01:31:59;;;;;;;24.27;11.32;;;2.20;99.90;;;1.37;100.00;101560.06;4147002;28;20029;-68
2024/03/06 01:34:00;;;;;;;25.15;12.05;;;2.10;99.90;;;1.42;100.00;101552.88;4137917;28;20065;-68
2024/03/06 01:36:01;;;;;;;22.08;11.38;;;2.20;99.90;;;1.41;100.00;101559.81;4137662;28;20022;-68
2024/03/06 01:38:02;;;;;;;20.13;9.88;;;2.20;99.90;;;1.44;100.00;101566.59;4154172;28;20393;-68
2024/03/06 01:40:07;;;;;;;18.42;8.80;;;2.30;99.90;;;1.39;100.00;101555.63;4151974;28;20026;-68
2024/03/06 01:42:08;;;;;;;16.50;10.25;;;2.30;99.90;;;1.39;100.00;101556.47;4150725;28;20026;-68
2024/03/06 01:44:08;;;;;;;17.42;9.13;;;2.20;99.90;;;1.36;100.00;101559.22;4154726;28;20108;-68
2024/03/06 01:46:09;;;;;;;17.65;8.45;;;2.20;99.90;;;1.38;100.00;101561.72;4155289;28;20034;-68
2024/03/06 01:48:10;;;;;;;25.73;10.07;;;2.20;99.90;;;1.36;100.00;101555.78;4155227;28;20034;-68
2024/03/06 01:50:11;;;;;;;25.42;11.00;;;2.20;99.90;;;1.36;100.00;101563.56;4150667;28;20038;-68
2024/03/06 01:52:15;;;;;;;23.27;12.05;;;2.20;99.90;;;1.36;100.00;101558.38;4136045;28;20035;-68
2024/03/06 01:54:16;;;;;;;15.90;8.90;;;2.20;99.90;;;1.37;100.00;101560.91;4152654;28;20397;-68
2024/03/06 01:56:17;;;;;;;24.38;12.50;;;2.20;99.90;;;1.39;100.00;101563.41;4137304;28;20265;-68
2024/03/06 01:58:21;;;;;;;28.00;13.45;;;2.20;99.90;;;1.41;100.00;101564.16;4154833;28;20482;-68
2024/03/06 02:00:22;;;;;;;21.63;11.30;;;2.30;99.90;;;1.45;100.00;101558.75;4133931;28;20018;-68
2024/03/06 02:02:23;;;;;;;20.67;11.52;;;2.30;99.90;;;1.47;100.00;101564.69;4137409;28;20560;-68
2024/03/06 02:04:27;;;;;;;22.15;12.20;;;2.30;99.90;;;1.44;100.00;101554.47;4154992;28;20033;-68
2024/03/06 02:06:29;;;;;;;24.15;12.88;;;2.30;99.90;;;1.46;100.00;101557.00;4137746;28;20036;-68
2024/03/06 02:08:32;;;;;;;21.20;12.93;;;2.30;99.90;;;1.43;100.00;101554.56;4137165;28;20042;-68
2024/03/06 02:10:34;;;;;;;20.75;12.23;;;2.30;99.90;;;1.38;100.00;101552.16;4153508;28;20021;-68
2024/03/06 02:12:34;;;;;;;19.95;11.27;;;2.30;99.90;;;1.34;100.00;101549.81;4154600;28;20124;-68
2024/03/06 02:14:37;;;;;;;19.08;10.63;;;2.20;99.90;;;1.33;100.00;101545.53;4154264;28;20481;-68
2024/03/06 02:16:41;;;;;;;15.60;9.75;;;2.20;99.90;;;1.22;100.00;101540.88;4136996;28;20197;-68
2024/03/06 02:18:53;;;;;;;17.80;10.50;;;2.10;99.90;;;1.15;100.00;101538.66;4137469;28;20060;-68
2024/03/06 02:20:54;;;;;;;17.20;10.13;;;2.10;99.90;;;1.08;100.00;101543.31;4127511;28;20035;-68
2024/03/06 02:22:54;;;;;;;17.20;10.05;;;2.00;99.90;;;1.04;100.00;101542.66;4152287;28;20022;-68
2024/03/06 02:24:55;;;;;;;20.80;11.50;;;2.00;99.90;;;1.00;100.00;101541.09;4136893;28;20023;-68
2024/03/06 02:26:56;;;;;;;25.30;11.73;;;1.90;99.90;;;0.99;100.00;101534.22;4137087;28;20023;-68
2024/03/06 02:28:58;;;;;;;21.67;11.65;;;1.90;99.90;;;1.00;100.00;101538.50;4136821;28;20037;-68
2024/03/06 02:30:59;;;;;;;18.15;10.68;;;1.90;99.90;;;1.00;100.00;101532.47;4126740;28;20043;-68
2024/03/06 02:32:59;;;;;;;23.83;12.02;;;1.90;99.90;;;0.98;100.00;101537.75;4137935;28;20429;-68
2024/03/06 02:35:08;;;;;;;27.05;11.95;;;1.80;99.90;;;0.91;100.00;101525.97;4137031;28;20023;-68
2024/03/06 02:37:09;;;;;;;23.55;11.82;;;1.80;99.90;;;0.91;100.00;101530.31;4121034;28;20126;-68
2024/03/06 02:39:10;;;;;;;25.95;12.65;;;1.80;99.90;;;0.89;100.00;101525.22;4137260;28;20026;-68
2024/03/06 02:41:13;;;;;;;32.42;15.38;;;1.80;99.90;;;0.85;100.00;101528.88;4130210;28;20113;-68
2024/03/06 02:43:15;;;;;;;27.80;14.75;;;1.80;99.90;;;0.81;100.00;101531.69;4152845;28;20061;-68
2024/03/06 02:45:16;;;;;;;33.42;17.90;;;1.70;99.90;;;0.78;100.00;101522.28;4137760;28;20402;-68
2024/03/06 02:47:17;;;;;;;27.65;13.30;;;1.70;99.90;;;0.74;100.00;101525.97;4137776;28;20118;-68
2024/03/06 02:49:18;;;;;;;24.58;13.30;;;1.60;99.90;;;0.72;100.00;101519.97;4138230;28;20066;-68
2024/03/06 02:51:19;;;;;;;31.90;14.95;;;1.60;99.90;;;0.70;100.00;101534.81;4136639;28;20085;-68
2024/03/06 02:53:20;;;;;;;36.63;15.50;;;1.60;99.90;;;0.67;100.00;101527.16;4137760;28;20373;-68
2024/03/06 02:55:23;;;;;;;31.00;14.65;;;1.60;99.90;;;0.66;100.00;101525.47;4136481;28;20033;-68
2024/03/06 02:57:30;;;;;;;19.15;11.25;;;1.60;99.90;;;0.64;100.00;101522.13;4136952;28;20477;-68
2024/03/06 02:59:31;;;;;;;22.20;12.80;;;1.50;99.90;;;0.61;100.00;101527.47;4136528;28;20433;-68
2024/03/06 03:01:32;;;;;;;29.48;13.10;;;1.50;99.90;;;0.60;100.00;101519.75;4136466;28;20023;-68
2024/03/06 03:03:32;;;;;;;27.00;13.98;;;1.50;99.90;;;0.59;100.00;101512.88;4137556;28;20026;-68
2024/03/06 03:05:33;;;;;;;22.52;12.48;;;1.50;99.90;;;0.58;100.00;101517.22;4136679;28;20082;-68
2024/03/06 03:07:34;;;;;;;24.55;11.77;;;1.50;99.90;;;0.53;100.00;101516.59;4137734;28;20034;-68
2024/03/06 03:09:36;;;;;;;20.30;11.95;;;1.50;99.90;;;0.48;100.00;101518.56;4137693;28;20038;-68
2024/03/06 03:11:37;;;;;;;24.38;12.80;;;1.40;99.90;;;0.46;100.00;101520.41;4136770;28;20027;-68
2024/03/06 03:13:37;;;;;;;21.90;10.25;;;1.40;99.90;;;0.43;100.00;101526.59;4134236;28;20026;-68
2024/03/06 03:15:40;;;;;;;23.85;11.40;;;1.40;99.90;;;0.43;100.00;101520.53;4137654;28;20019;-68
2024/03/06 03:17:41;;;;;;;21.15;11.27;;;1.30;99.90;;;0.42;100.00;101524.88;4137423;28;20026;-68
2024/03/06 03:19:42;;;;;;;19.33;11.75;;;1.30;99.90;;;0.40;100.00;101518.09;4137304;28;20490;-68
2024/03/06 03:21:46;;;;;;;18.52;10.15;;;1.30;99.90;;;0.39;100.00;101524.19;4126246;28;20042;-68
2024/03/06 03:23:46;;;;;;;18.80;10.85;;;1.30;99.90;;;0.36;100.00;101517.38;4137454;28;20388;-67
2024/03/06 03:25:48;;;;;;;23.23;10.45;;;1.30;99.90;;;0.39;100.00;101516.41;4137245;28;20035;-67
2024/03/06 03:27:49;;;;;;;25.05;11.90;;;1.30;99.90;;;0.41;100.00;101519.78;4136119;28;20023;-68
2024/03/06 03:29:50;;;;;;;38.05;11.88;;;1.30;99.90;;;0.40;100.00;101505.13;4138913;28;20032;-68
2024/03/06 03:31:51;;;;;;;23.40;12.00;;;1.30;99.90;;;0.41;100.00;101506.81;4144550;28;20515;-68
2024/03/06 03:33:52;;;;;;;31.77;12.68;;;1.30;99.90;;;0.43;100.00;101512.75;4153393;28;20504;-68
2024/03/06 03:35:53;;;;;;;30.98;12.30;;;1.30;99.90;;;0.42;100.00;101506.72;4153284;28;20025;-68
2024/03/06 03:37:55;;;;;;;19.33;9.65;;;1.30;99.90;;;0.41;100.00;101509.41;4135755;28;20019;-68
2024/03/06 03:39:56;;;;;;;28.30;11.90;;;1.30;99.90;;;0.42;100.00;101505.88;4135492;28;20033;-68
2024/03/06 03:41:56;;;;;;;18.92;10.82;;;1.30;99.90;;;0.40;100.00;101507.72;4147077;28;20029;-68
2024/03/06 03:43:57;;;;;;;22.20;10.57;;;1.30;99.90;;;0.45;100.00;101506.56;4135574;28;20069;-68
2024/03/06 03:45:59;;;;;;;20.83;10.75;;;1.30;99.90;;;0.46;100.00;101508.25;4152717;28;20088;-68
2024/03/06 03:48:05;;;;;;;18.17;9.85;;;1.30;99.90;;;0.46;100.00;101507.41;4150098;28;20503;-68
2024/03/06 03:50:08;;;;;;;19.77;10.50;;;1.30;99.90;;;0.44;100.00;101504.06;4144008;28;20437;-68
2024/03/06 03:52:09;;;;;;;17.33;9.63;;;1.30;99.90;;;0.45;100.00;101505.72;4132786;28;20529;-68
2024/03/06 03:54:10;;;;;;;17.98;10.23;;;1.30;99.90;;;0.44;100.00;101504.06;4153046;28;20037;-68
2024/03/06 03:56:11;;;;;;;15.35;10.55;;;1.30;99.90;;;0.48;100.00;101506.44;4153059;28;20029;-68
2024/03/06 03:58:11;;;;;;;17.65;10.95;;;1.40;99.90;;;0.53;100.00;101501.88;4135649;28;20375;-67
2024/03/06 04:00:14;;;;;;;18.85;10.60;;;1.40;99.90;;;0.66;100.00;101509.09;4150329;28;20025;-68
2024/03/06 04:02:15;;;;;;;15.98;10.38;;;1.50;99.90;;;0.67;100.00;101508.13;4141320;28;20121;-68
2024/03/06 04:04:16;;;;;;;16.98;10.88;;;1.50;99.90;;;0.74;100.00;101509.53;4135676;28;20034;-68
2024/03/06 04:06:17;;;;;;;16.73;10.80;;;1.60;99.90;;;0.83;100.00;101507.34;4129085;28;20030;-68
2024/03/06 04:08:18;;;;;;;20.75;10.80;;;1.70;99.90;;;0.90;100.00;101502.66;4152682;28;20026;-67
2024/03/06 04:10:19;;;;;;;18.58;11.20;;;1.80;99.90;;;0.99;100.00;101513.44;4149666;28;20027;-68
2024/03/06 04:12:20;;;;;;;18.98;10.65;;;1.80;99.90;;;1.10;100.00;101521.56;4143160;28;20076;-68
2024/03/06 04:14:21;;;;;;;16.35;10.70;;;1.90;99.90;;;1.19;100.00;101517.66;4152500;28;20029;-68
2024/03/06 04:16:21;;;;;;;18.27;10.45;;;2.10;99.90;;;1.27;100.00;101512.91;4135313;28;20026;-68
2024/03/06 04:18:22;;;;;;;14.57;9.57;;;2.10;99.90;;;1.36;100.00;101521.97;4135325;28;20022;-68
2024/03/06 04:20:23;;;;;;;14.05;10.20;;;2.20;99.90;;;1.39;100.00;101511.44;4131805;28;20030;-68
2024/03/06 04:22:24;;;;;;;13.40;9.55;;;2.20;99.90;;;1.40;100.00;101507.91;4128578;28;20022;-68
2024/03/06 04:24:26;;;;;;;13.90;9.95;;;2.30;99.90;;;1.41;100.00;101510.44;4152605;28;20044;-68
2024/03/06 04:26:27;;;;;;;18.98;10.20;;;2.30;99.90;;;1.40;100.00;101513.13;4152406;28;20041;-68
2024/03/06 04:28:28;;;;;;;16.80;10.45;;;2.30;99.90;;;1.34;100.00;101509.09;4152326;28;20073;-68
2024/03/06 04:30:29;;;;;;;14.80;8.75;;;2.20;99.90;;;1.28;100.00;101513.75;4148185;28;20417;-68
2024/03/06 04:32:29;;;;;;;16.73;9.73;;;2.20;99.90;;;1.22;100.00;101511.47;4148420;28;20065;-68
2024/03/06 04:34:30;;;;;;;21.60;11.10;;;2.10;99.90;;;1.17;100.00;101510.81;4135000;28;20076;-68
2024/03/06 04:36:31;;;;;;;17.48;10.00;;;2.10;99.90;;;1.10;100.00;101507.72;4152630;28;20145;-68
2024/03/06 04:38:32;;;;;;;15.40;9.73;;;2.00;99.90;;;1.06;100.00;101509.63;4134835;28;20029;-68
2024/03/06 04:40:34;;;;;;;17.52;10.35;;;2.00;99.90;;;1.01;100.00;101508.19;4147888;28;20105;-68
2024/03/06 04:42:38;;;;;;;14.95;8.57;;;1.90;99.90;;;0.97;100.00;101512.69;4133253;28;20036;-68
2024/03/06 04:44:39;;;;;;;;;;;1.90;99.90;;;0.90;100.00;101503.50;4152721;28;20049;-68
2024/03/06 04:46:40;;;;;;;17.08;10.85;;;1.90;99.90;;;0.86;100.00;101507.19;4152460;28;19909;-68
2024/03/06 04:48:41;;;;;;;17.20;9.27;;;1.80;99.90;;;0.82;100.00;101510.00;4152474;28;20026;-68
2024/03/06 04:50:41;;;;;;;12.02;7.57;;;1.70;99.90;;;0.75;100.00;101506.84;4148326;28;20023;-68
2024/03/06 04:52:43;;;;;;;12.73;8.63;;;1.70;99.90;;;0.67;100.00;101516.78;4152475;28;20067;-68
2024/03/06 04:54:44;;;;;;;15.68;10.07;;;1.60;99.90;;;0.61;100.00;101511.88;4134919;28;20073;-68
2024/03/06 04:56:45;;;;;;;12.73;8.43;;;1.60;99.90;;;0.56;100.00;101519.06;4151731;28;20061;-68
2024/03/06 04:58:46;;;;;;;17.25;10.02;;;1.50;99.90;;;0.48;100.00;101513.38;4134498;28;20030;-68
2024/03/06 05:00:47;;;;;;;15.73;8.65;;;1.40;99.90;;;0.45;100.00;101506.56;4133028;28;20011;-68
2024/03/06 05:02:49;;;;;;;17.05;9.82;;;1.40;99.90;;;0.43;100.00;101508.41;4134997;28;20038;-68
2024/03/06 05:04:50;;;;;;;17.83;9.63;;;1.40;99.90;;;0.41;100.00;101509.41;4127916;28;20026;-68
2024/03/06 05:06:50;;;;;;;15.52;9.40;;;1.30;99.90;;;0.38;100.00;101509.56;4150316;28;20032;-68
2024/03/06 05:08:51;;;;;;;14.27;9.52;;;1.30;99.90;;;0.34;100.00;101508.00;4152305;28;20032;-68
2024/03/06 05:10:52;;;;;;;16.63;9.40;;;1.30;99.90;;;0.34;100.00;101515.78;4145556;28;20031;-68
2024/03/06 05:12:53;;;;;;;13.40;9.07;;;1.20;99.90;;;0.29;100.00;101515.16;4147000;28;20034;-68
2024/03/06 05:14:55;;;;;;;16.08;9.43;;;1.20;99.90;;;0.26;100.00;101510.13;4134393;28;20033;-68
2024/03/06 05:16:56;;;;;;;20.63;10.20;;;1.20;99.90;;;0.25;100.00;101511.03;4134860;28;20035;-68
2024/03/06 05:18:57;;;;;;;16.33;9.85;;;1.20;99.90;;;0.22;100.00;101519.78;4152228;28;20026;-68
2024/03/06 05:20:58;;;;;;;16.67;9.95;;;1.20;99.90;;;0.23;100.00;101526.69;4144728;28;20027;-68
2024/03/06 05:22:58;;;;;;;16.25;9.40;;;1.20;99.90;;;0.25;100.00;101524.00;4149526;28;20026;-68
2024/03/06 05:24:59;;;;;;;16.58;9.38;;;1.20;99.90;;;0.28;100.00;101523.84;4152167;28;20396;-68
2024/03/06 05:27:00;;;;;;;17.05;9.70;;;1.20;99.90;;;0.31;100.00;101523.72;4152094;28;20412;-68
2024/03/06 05:29:01;;;;;;;15.57;10.07;;;1.20;99.90;;;0.31;100.00;101526.31;4134496;28;20023;-68
2024/03/06 05:31:23;;;;;;;14.77;9.30;;;1.20;99.90;;;0.32;100.00;101528.00;4144373;28;20093;-68
2024/03/06 05:33:24;;;;;;;14.48;9.63;;;1.30;99.90;;;0.29;100.00;101535.94;4135223;28;20030;-68
2024/03/06 05:35:25;;;;;;;12.18;8.77;;;1.20;99.90;;;0.22;100.00;101539.72;4152246;28;20037;-68
2024/03/06 05:37:26;;;;;;;18.98;10.27;;;1.20;99.90;;;0.17;100.00;101532.16;4151468;28;20022;-68
2024/03/06 05:39:27;;;;;;;16.17;10.60;;;1.20;99.90;;;0.16;100.00;101527.88;4151588;28;20034;-68
2024/03/06 05:41:28;;;;;;;14.65;9.80;;;1.10;99.90;;;0.14;100.00;101534.88;4134567;28;20102;-68
2024/03/06 05:43:29;;;;;;;13.15;9.15;;;1.00;99.90;;;0.12;100.00;101536.69;4134432;28;20089;-68
2024/03/06 05:45:30;;;;;;;11.82;8.80;;;1.00;99.90;;;0.08;100.00;101531.72;4151887;28;20033;-68
2024/03/06 05:47:34;;;;;;;14.75;9.70;;;1.00;99.90;;;0.07;100.00;101532.63;4151941;28;20034;-68
2024/03/06 05:49:34;;;;;;;16.30;9.45;;;1.00;99.90;;;0.03;100.00;101531.09;4152025;28;20122;-67
2024/03/06 05:51:35;;;;;;;11.93;8.25;;;1.00;99.90;;;-0.03;100.00;101533.03;4134433;28;20045;-68
2024/03/06 05:53:42;;;;;;;12.43;8.57;;;0.90;99.90;;;-0.08;100.00;101536.75;4151780;28;20563;-68
2024/03/06 05:55:43;;;;;;;16.92;9.20;;;0.90;99.90;;;-0.12;100.00;101541.22;4150375;28;20029;-68
2024/03/06 05:57:45;;;;;;;11.82;8.77;;;0.80;99.90;;;-0.15;100.00;101536.19;4134313;28;20030;-68
2024/03/06 05:59:46;;;;;;;15.57;10.23;;;0.80;99.90;;;-0.15;100.00;101537.97;4134449;28;20030;-68
2024/03/06 06:01:47;;;;;;;13.82;9.43;;;0.80;99.90;;;-0.18;100.00;101535.50;4151327;28;20029;-68
2024/03/06 06:03:49;;;;;;;15.15;9.15;;;0.80;99.90;;;-0.20;100.00;101529.53;4134501;28;20074;-67
2024/03/06 06:05:49;;;;;;;19.83;10.68;;;0.80;99.90;;;-0.17;100.00;101539.75;4133967;28;20026;-68
2024/03/06 06:07:51;;;;;;;17.05;9.88;;;0.70;99.90;;;-0.18;100.00;101536.31;4145121;28;20033;-68
2024/03/06 06:09:51;;;;;;;13.27;8.68;;;0.80;99.90;;;-0.19;100.00;101534.66;4154821;28;20029;-68
2024/03/06 06:11:53;;;;;;;15.50;9.60;;;0.80;99.90;;;-0.19;100.00;101531.22;4142971;28;20026;-68
2024/03/06 06:13:54;;;;;;;15.27;9.48;;;0.80;99.90;;;-0.21;100.00;101541.66;4154539;28;20112;-68
2024/03/06 06:15:59;;;;;;;12.90;8.27;;;0.70;99.90;;;-0.23;100.00;101535.69;4154632;28;20445;-68
2024/03/06 06:17:59;;;;;;;13.88;9.40;;;0.70;99.90;;;-0.25;100.00;101545.31;4137206;28;20105;-68
2024/03/06 06:20:01;;;;;;;18.73;10.38;;;0.70;99.90;;;-0.23;100.00;101540.03;4137028;28;20027;-68
2024/03/06 06:22:01;;;;;;;17.63;10.13;;;0.70;99.90;;;-0.22;100.00;101539.97;4127944;28;20038;-68
2024/03/06 06:24:03;;;;;;;18.20;11.13;;;0.70;99.90;;;-0.21;100.00;101540.81;4154510;28;20030;-68
2024/03/06 06:26:05;;;;;;;15.35;10.13;;;0.70;99.90;;;-0.20;100.00;101543.34;4154548;28;20041;-68
2024/03/06 06:28:06;;;;;;;12.20;9.07;;;0.70;99.90;;;-0.19;100.00;101534.66;4154416;28;20032;-67
2024/03/06 06:30:11;;;;;;;13.27;9.48;;;0.70;99.90;;;-0.16;100.00;101544.03;4136990;28;20549;-68
2024/03/06 06:32:12;;;;;;;17.33;9.73;;;0.80;99.90;;;-0.17;100.00;101548.38;4131643;28;20486;-68
2024/03/06 06:34:13;;;;;;;16.42;10.27;;;0.80;99.90;;;-0.17;100.00;101550.13;4138010;28;20114;-68
2024/03/06 06:36:14;;;;;;;16.17;11.02;;;0.80;99.90;;;-0.18;100.00;101549.28;4137934;28;20030;-68
2024/03/06 06:38:15;;;;;;;20.75;12.38;;;0.70;99.90;;;-0.11;100.00;101552.44;4136754;28;20031;-70
2024/03/06 06:40:15;;;;;;;17.48;10.05;;;0.80;99.90;;;-0.10;100.00;101557.59;4137696;28;20437;-70
2024/03/06 06:42:16;;;;;;;18.27;9.50;;;0.80;99.90;;;-0.09;100.00;101548.88;4134553;28;20034;-70
2024/03/06 06:44:17;;;;;;;17.77;9.80;;;0.80;99.90;;;-0.07;100.00;101560.03;4137807;28;20026;-70
2024/03/06 06:46:18;;;;;;;15.52;9.07;;;0.80;99.90;;;-0.07;100.00;101554.00;4137987;28;20041;-70
2024/03/06 06:48:19;;;;;;;23.58;11.63;;;0.90;99.90;;;-0.04;100.00;101559.91;4137812;28;20037;-70
2024/03/06 06:50:25;;;;;;;16.20;10.30;;;0.80;99.90;;;-0.03;100.00;101558.16;4137093;28;20064;-70
2024/03/06 06:52:27;;;;;;;13.85;9.25;;;0.90;99.90;;;0.02;100.00;101560.53;4136471;28;20093;-70
2024/03/06 06:54:28;;;;;;;14.15;8.75;;;0.90;99.90;;;0.07;100.00;101563.75;4136696;28;20022;-70
2024/03/06 06:56:29;;;;;;;13.00;9.43;;;1.00;99.90;;;0.14;100.00;101562.56;4136594;28;20022;-71
2024/03/06 06:58:30;;;;;;;17.85;11.32;;;1.00;99.90;;;0.21;100.00;101564.81;4137673;28;20385;-70
2024/03/06 07:00:31;;;;;;;18.48;9.88;;;1.10;99.90;;;0.34;100.00;101570.28;4134413;28;20034;-70
2024/03/06 07:02:32;;;;;;;16.40;8.35;;;1.20;99.90;;;0.48;100.00;101567.88;4127759;28;20027;-70
2024/03/06 07:04:32;;;;;;;16.02;9.38;;;1.30;99.90;;;0.61;100.00;101569.00;4137739;28;20081;-70
2024/03/06 07:06:33;;;;;;;18.73;10.77;;;1.40;99.90;;;0.66;100.00;101571.38;4134399;28;20437;-70
2024/03/06 07:08:34;;;;;;;13.00;9.07;;;1.50;99.90;;;0.68;100.00;101565.19;4137417;28;20518;-71
2024/03/06 07:10:35;;;;;;;13.57;9.27;;;1.50;99.90;;;0.77;100.00;101575.16;4136462;28;20105;-70
2024/03/06 07:12:36;;;;;;;14.07;8.95;;;1.60;99.90;;;0.82;100.00;101577.50;4129973;28;20027;-70
2024/03/06 07:14:37;;;;;;;12.85;8.73;;;1.60;99.90;;;0.86;100.00;101569.53;4137284;28;20023;-70
2024/03/06 07:16:43;;;;;;;15.95;8.57;;;1.70;99.90;;;0.88;100.00;101578.06;4137354;28;20030;-70
2024/03/06 07:18:44;;;;;;;15.05;10.77;;;1.70;99.90;;;0.87;100.00;101578.97;4152302;28;20061;-70
2024/03/06 07:20:45;;;;;;;19.73;9.32;;;1.70;99.90;;;0.89;100.00;101579.75;4133244;28;20022;-70
2024/03/06 07:22:46;;;;;;;14.82;9.05;;;1.70;99.90;;;0.91;100.00;101582.25;4147765;28;20022;-70
2024/03/06 07:24:47;;;;;;;17.52;9.38;;;1.70;99.90;;;1.01;100.00;101584.38;4137147;28;20551;-69
2024/03/06 07:26:48;;;;;;;13.50;9.27;;;1.80;99.90;;;1.12;100.00;101576.03;4137409;28;20036;-69
2024/03/06 07:28:49;;;;;;;15.93;8.75;;;1.90;99.90;;;1.29;100.00;101580.38;4137333;28;20046;-69
2024/03/06 07:30:50;;;;;;;17.02;8.95;;;2.10;99.90;;;1.47;100.00;101577.69;4142885;28;20042;-69
2024/03/06 07:32:51;;;;;;;11.15;7.75;;;2.30;99.90;;;1.66;100.00;101572.41;4134644;28;20122;-69
2024/03/06 07:34:52;;;;;;;15.43;8.85;;;2.50;99.90;;;1.86;100.00;101585.22;4153411;28;20504;-69
2024/03/06 07:36:53;;;;;;;13.40;8.35;;;2.60;99.90;;;2.04;100.00;101586.84;4153361;28;20026;-69
2024/03/06 07:38:54;;;;;;;11.10;7.88;;;2.80;99.90;;;2.33;100.00;101587.06;4135724;28;20022;-69
2024/03/06 07:40:55;;;;;;;11.95;7.80;;;3.00;99.90;;;2.54;100.00;101583.31;4149995;28;20085;-69
2024/03/06 07:42:59;;;;;;;11.93;8.40;;;3.20;99.90;;;2.67;100.00;101585.13;4150729;28;20042;-69
2024/03/06 07:45:00;;;;;;;13.43;7.78;;;3.40;99.90;;;2.75;100.00;101588.16;4135766;28;20425;-69
2024/03/06 07:47:01;;;;;;;15.77;8.18;;;3.50;99.90;;;2.83;100.00;101582.53;4152892;28;20036;-69
2024/03/06 07:49:03;;;;;;;12.93;8.50;;;3.60;99.90;;;2.96;100.00;101590.47;4135816;28;20022;-69
2024/03/06 07:51:04;;;;;;;13.82;7.78;;;3.70;99.90;;;3.01;100.00;101593.66;4134982;28;20049;-69
2024/03/06 07:53:05;;;;;;;12.27;7.97;;;3.80;99.90;;;3.12;100.00;101596.50;4135663;28;20030;-69
2024/03/06 07:55:06;;;;;;;13.02;7.25;;;3.90;99.90;;;3.23;100.00;101600.16;4153015;28;20026;-68
2024/03/06 07:57:09;;;;;;;12.27;7.38;;;4.00;99.90;;;3.41;100.00;101595.66;4135117;28;20027;-68
2024/03/06 07:59:12;;;;;;;12.05;8.38;;;4.10;99.90;;;3.67;100.00;101599.34;4152936;28;20022;-69
2024/03/06 08:01:13;;;;;;;15.10;8.25;;;4.30;99.90;;;3.89;100.00;101600.56;4146205;28;20532;-69
2024/03/06 08:03:13;;;;;;;12.75;7.65;;;4.50;99.90;;;3.98;100.00;101598.34;4130613;28;20018;-69
2024/03/06 08:05:14;;;;;;;11.10;7.18;;;4.70;99.90;;;3.96;100.00;101595.84;4152793;28;20022;-69
2024/03/06 08:07:15;;;;;;;15.88;7.13;;;4.70;99.90;;;4.03;100.00;101601.53;4152988;28;20034;-68
2024/03/06 08:09:19;;;;;;;10.55;6.88;;;4.70;99.90;;;4.11;100.00;101600.13;4149631;28;20026;-69
2024/03/06 08:11:22;;;;;;;9.43;5.80;;;4.80;99.90;;;4.26;100.00;101607.03;4145269;28;20018;-69
2024/03/06 08:13:23;;;;;;;10.73;6.40;;;4.90;99.90;;;4.39;100.00;101594.84;4150921;28;20108;-69
2024/03/06 08:15:24;;;;;;;11.60;6.80;;;5.10;99.90;;;4.55;100.00;101593.91;4152885;28;20062;-68
2024/03/06 08:17:25;;;;;;;10.05;6.75;;;5.30;99.90;;;4.60;100.00;101603.13;4152827;28;20030;-69
2024/03/06 08:19:26;;;;;;;11.75;7.40;;;5.40;99.90;;;4.48;100.00;101591.66;4152724;28;20022;-69
2024/03/06 08:21:27;;;;;;;12.38;6.82;;;5.30;99.90;;;4.41;100.00;101598.22;4145270;28;20018;-69
2024/03/06 08:23:28;;;;;;;10.93;6.47;;;5.30;99.90;;;4.44;100.00;101595.44;4152772;28;20029;-68